createdAt,value
2022-08-16T00:02:33.266Z,69.14
2022-08-16T00:05:01.567Z,69.27
2022-08-16T00:07:29.756Z,69.83
2022-08-16T00:09:59.571Z,69.88
2022-08-16T00:12:29.899Z,70.42
2022-08-16T00:15:00.312Z,69.88
2022-08-16T00:17:28.975Z,70.51
2022-08-16T00:20:16.922Z,70.44
2022-08-16T00:22:49.549Z,70.16
2022-08-16T00:26:36.037Z,70.32
2022-08-16T00:28:11.640Z,70.38
2022-08-16T00:30:40.148Z,70.57
2022-08-16T00:33:10.199Z,70.46
2022-08-16T00:35:39.329Z,70.26
2022-08-16T00:38:40.162Z,70.58
2022-08-16T00:40:57.502Z,70.57
2022-08-16T00:43:43.298Z,70.39
2022-08-16T00:46:33.532Z,70.73
2022-08-16T00:49:03.326Z,70.36
2022-08-16T00:51:31.630Z,70.39
2022-08-16T00:53:59.618Z,70.68
2022-08-16T00:56:56.230Z,70.17
2022-08-16T00:59:23.937Z,69.98
2022-08-16T01:01:53.157Z,70.12
2022-08-16T01:04:30.341Z,70.65
2022-08-16T01:07:01.805Z,70.50
2022-08-16T01:09:33.288Z,71.37
2022-08-16T01:12:08.692Z,70.82
2022-08-16T01:14:47.098Z,71.13
2022-08-16T01:17:19.322Z,70.48
2022-08-16T01:19:51.164Z,71.37
2022-08-16T01:22:48.280Z,70.91
2022-08-16T01:25:21.642Z,71.39
2022-08-16T01:27:53.261Z,71.13
2022-08-16T01:30:27.542Z,71.54
2022-08-16T01:33:02.360Z,72.18
2022-08-16T01:35:46.927Z,71.79
2022-08-16T01:38:25.830Z,72.53
2022-08-16T01:41:03.487Z,71.96
2022-08-16T01:43:34.280Z,71.88
2022-08-16T01:46:37.732Z,72.27
2022-08-16T01:49:15.594Z,71.99
2022-08-16T01:51:48.833Z,72.16
2022-08-16T01:54:30.674Z,71.87
2022-08-16T01:57:02.218Z,72.00
2022-08-16T01:59:32.503Z,71.33
2022-08-16T02:02:00.991Z,71.89
2022-08-16T02:04:49.539Z,71.79
2022-08-16T02:07:23.684Z,72.10
2022-08-16T02:09:58.687Z,71.92
2022-08-16T02:12:51.083Z,71.26
2022-08-16T02:15:27.103Z,71.72
2022-08-16T02:17:58.407Z,72.05
2022-08-16T02:20:28.159Z,72.39
2022-08-16T02:22:57.404Z,72.31
2022-08-16T02:25:47.467Z,72.04
2022-08-16T02:28:19.330Z,71.92
2022-08-16T02:30:51.633Z,72.37
2022-08-16T02:33:24.761Z,72.48
2022-08-16T02:36:14.232Z,72.67
2022-08-16T02:39:00.476Z,73.02
2022-08-16T02:41:28.528Z,72.76
2022-08-16T02:44:00.080Z,72.79
2022-08-16T02:46:30.133Z,72.88
2022-08-16T02:49:03.903Z,72.75
2022-08-16T02:51:34.150Z,72.80
2022-08-16T02:54:04.205Z,72.62
2022-08-16T02:56:34.165Z,73.02
2022-08-16T02:59:11.752Z,73.10
2022-08-16T03:01:43.303Z,72.94
2022-08-16T03:04:41.413Z,73.06
2022-08-16T03:07:14.761Z,72.99
2022-08-16T03:09:45.755Z,73.81
2022-08-16T03:12:19.271Z,73.04
2022-08-16T03:14:50.403Z,73.65
2022-08-16T03:17:21.916Z,73.54
2022-08-16T03:20:02.551Z,73.78
2022-08-16T03:26:14.390Z,73.90
2022-08-16T03:28:42.811Z,73.71
2022-08-16T03:31:12.511Z,73.68
2022-08-16T03:33:43.007Z,73.84
2022-08-16T03:36:29.808Z,73.88
2022-08-16T03:39:03.410Z,73.56
2022-08-16T03:41:49.834Z,74.13
2022-08-16T03:44:40.793Z,73.99
2022-08-16T03:47:10.611Z,74.10
2022-08-16T03:49:40.945Z,73.98
2022-08-16T03:52:12.315Z,73.76
2022-08-16T03:54:53.357Z,74.61
2022-08-16T03:57:31.730Z,74.35
2022-08-16T04:00:35.473Z,74.64
2022-08-16T04:03:08.723Z,74.16
2022-08-16T04:05:44.317Z,74.06
2022-08-16T04:08:22.788Z,73.67
2022-08-16T04:10:57.895Z,74.28
2022-08-16T04:14:00.154Z,74.12
2022-08-16T04:16:26.522Z,74.20
2022-08-16T04:19:04.606Z,74.07
2022-08-16T04:21:35.121Z,73.96
2022-08-16T04:24:03.891Z,74.12
2022-08-16T04:26:37.033Z,74.03
2022-08-16T04:29:23.552Z,74.16
2022-08-16T04:31:56.740Z,74.91
2022-08-16T04:34:32.362Z,74.43
2022-08-16T04:37:02.216Z,74.41
2022-08-16T04:39:36.653Z,73.77
2022-08-16T04:42:15.526Z,73.72
2022-08-16T04:44:53.210Z,73.35
2022-08-16T04:47:31.690Z,73.39
2022-08-16T04:50:04.950Z,73.14
2022-08-16T04:52:35.839Z,73.66
2022-08-16T04:55:07.935Z,73.40
2022-08-16T04:57:37.866Z,73.05
2022-08-16T05:00:30.560Z,73.01
2022-08-16T05:02:58.886Z,73.50
2022-08-16T05:05:36.910Z,73.17
2022-08-16T05:08:29.044Z,73.47
2022-08-16T05:11:08.936Z,73.17
2022-08-16T05:13:42.397Z,73.43
2022-08-16T05:16:23.236Z,72.93
2022-08-16T05:19:13.288Z,72.82
2022-08-16T05:22:03.401Z,72.74
2022-08-16T05:24:34.238Z,73.19
2022-08-16T05:27:11.314Z,74.02
2022-08-16T05:29:57.409Z,73.28
2022-08-16T05:32:32.787Z,73.60
2022-08-16T05:35:11.037Z,73.43
2022-08-16T05:37:45.159Z,72.86
2022-08-16T05:40:16.208Z,72.82
2022-08-16T05:42:49.445Z,71.99
2022-08-16T05:45:21.942Z,72.06
2022-08-16T05:48:00.073Z,71.80
2022-08-16T05:50:38.230Z,72.66
2022-08-16T05:53:11.232Z,72.21
2022-08-16T05:55:52.116Z,71.33
2022-08-16T05:58:32.842Z,71.19
2022-08-16T06:01:02.736Z,71.53
2022-08-16T06:03:32.030Z,71.88
2022-08-16T06:06:05.325Z,70.75
2022-08-16T06:08:42.336Z,70.76
2022-08-16T06:11:14.837Z,70.71
2022-08-16T06:13:48.167Z,70.14
2022-08-16T06:16:21.726Z,70.45
2022-08-16T06:18:53.791Z,70.05
2022-08-16T06:21:23.933Z,69.51
2022-08-16T06:24:01.267Z,70.02
2022-08-16T06:26:36.931Z,69.44
2022-08-16T06:29:07.702Z,68.87
2022-08-16T06:31:46.820Z,69.12
2022-08-16T06:34:53.096Z,68.92
2022-08-16T06:37:07.458Z,69.16
2022-08-16T06:39:49.765Z,68.27
2022-08-16T06:42:57.186Z,68.62
2022-08-16T06:45:46.380Z,69.18
2022-08-16T06:48:21.247Z,68.67
2022-08-16T06:51:02.729Z,67.99
2022-08-16T06:53:35.628Z,67.87
2022-08-16T06:56:14.582Z,67.94
2022-08-16T06:58:58.407Z,66.85
2022-08-16T07:01:44.987Z,66.31
2022-08-16T07:04:31.892Z,65.85
2022-08-16T07:07:03.328Z,66.00
2022-08-16T07:09:32.637Z,65.79
2022-08-16T07:12:03.210Z,65.17
2022-08-16T07:14:35.169Z,65.14
2022-08-16T07:17:08.226Z,65.01
2022-08-16T07:20:03.563Z,64.70
2022-08-16T07:22:39.707Z,65.03
2022-08-16T07:25:28.425Z,64.26
2022-08-16T07:27:59.261Z,64.10
2022-08-16T07:30:45.568Z,63.07
2022-08-16T07:33:51.864Z,63.15
2022-08-16T07:36:14.894Z,63.43
2022-08-16T07:38:52.244Z,62.71
2022-08-16T07:41:20.748Z,62.98
2022-08-16T07:43:55.820Z,62.66
2022-08-16T07:46:38.402Z,61.47
2022-08-16T07:49:32.337Z,61.34
2022-08-16T07:52:01.412Z,60.87
2022-08-16T07:54:49.118Z,60.73
2022-08-16T07:57:21.359Z,60.76
2022-08-16T07:59:57.265Z,60.44
2022-08-16T08:02:27.468Z,60.04
2022-08-16T08:04:58.127Z,60.25
2022-08-16T08:07:29.209Z,59.96
2022-08-16T08:10:01.558Z,59.61
2022-08-16T08:12:36.146Z,59.23
2022-08-16T08:15:12.108Z,58.45
2022-08-16T08:17:44.130Z,57.83
2022-08-16T08:20:28.367Z,58.73
2022-08-16T08:23:00.768Z,57.59
2022-08-16T08:25:51.967Z,57.18
2022-08-16T08:28:20.518Z,57.18
2022-08-16T08:31:01.643Z,57.07
2022-08-16T08:33:33.876Z,57.14
2022-08-16T08:36:05.145Z,57.32
2022-08-16T08:38:42.201Z,56.99
2022-08-16T08:41:15.476Z,56.88
2022-08-16T08:43:50.354Z,57.43
2022-08-16T08:46:22.803Z,56.78
2022-08-16T08:48:59.478Z,55.12
2022-08-16T08:51:31.897Z,53.61
2022-08-16T08:54:06.609Z,53.95
2022-08-16T08:56:37.437Z,53.54
2022-08-16T08:59:16.402Z,52.59
2022-08-16T09:01:57.032Z,52.84
2022-08-16T09:04:29.650Z,52.74
2022-08-16T09:07:01.455Z,52.16
2022-08-16T09:09:41.089Z,52.51
2022-08-16T09:12:35.341Z,52.59
2022-08-16T09:15:06.577Z,52.58
2022-08-16T09:17:51.761Z,52.71
2022-08-16T09:20:23.723Z,52.42
2022-08-16T09:22:54.652Z,52.67
2022-08-16T09:25:56.144Z,53.48
2022-08-16T09:29:13.821Z,53.31
2022-08-16T09:31:20.133Z,53.00
2022-08-16T09:33:51.963Z,52.60
2022-08-16T09:36:31.535Z,52.08
2022-08-16T09:39:02.155Z,51.70
2022-08-16T09:41:31.690Z,51.27
2022-08-16T09:44:02.567Z,52.24
2022-08-16T09:46:49.873Z,50.40
2022-08-16T09:49:20.852Z,50.91
2022-08-16T09:51:54.550Z,50.86
2022-08-16T09:54:32.185Z,50.93
2022-08-16T09:57:01.710Z,50.11
2022-08-16T09:59:31.214Z,50.58
2022-08-16T10:02:25.846Z,50.54
2022-08-16T10:04:57.423Z,49.67
2022-08-16T10:07:26.261Z,50.09
2022-08-16T10:10:13.199Z,50.50
2022-08-16T10:13:01.251Z,50.06
2022-08-16T10:15:30.183Z,49.59
2022-08-16T10:17:59.954Z,49.69
2022-08-16T10:20:34.571Z,48.90
2022-08-16T10:23:07.173Z,49.68
2022-08-16T10:27:18.204Z,49.28
2022-08-16T10:28:28.571Z,49.35
2022-08-16T10:30:59.410Z,49.97
2022-08-16T10:33:29.346Z,50.13
2022-08-16T10:36:03.315Z,50.32
2022-08-16T10:38:33.237Z,48.68
2022-08-16T10:41:06.997Z,48.70
2022-08-16T10:43:36.420Z,49.57
2022-08-16T10:46:33.795Z,48.33
2022-08-16T10:48:56.064Z,47.73
2022-08-16T10:51:33.609Z,47.53
2022-08-16T10:54:05.015Z,47.77
2022-08-16T10:56:51.361Z,47.27
2022-08-16T10:59:32.607Z,46.96
2022-08-16T11:02:58.819Z,46.98
2022-08-16T11:05:10.730Z,47.37
2022-08-16T11:07:43.728Z,47.08
2022-08-16T11:10:57.048Z,47.44
2022-08-16T11:15:59.178Z,47.25
2022-08-16T11:19:04.618Z,46.33
2022-08-16T11:21:28.834Z,45.59
2022-08-16T11:23:59.853Z,46.98
2022-08-16T11:26:28.675Z,46.16
2022-08-16T11:29:13.883Z,45.89
2022-08-16T11:31:45.823Z,46.39
2022-08-16T11:34:21.855Z,45.40
2022-08-16T11:36:53.907Z,45.74
2022-08-16T11:39:31.853Z,45.63
2022-08-16T11:42:02.496Z,46.22
2022-08-16T11:44:52.313Z,45.48
2022-08-16T11:47:18.650Z,45.50
2022-08-16T11:49:46.566Z,45.78
2022-08-16T11:52:17.541Z,46.40
2022-08-16T11:54:56.832Z,45.94
2022-08-16T11:57:25.156Z,46.30
2022-08-16T11:59:54.955Z,45.73
2022-08-16T12:02:31.318Z,45.40
2022-08-16T12:05:01.178Z,44.08
2022-08-16T12:07:29.455Z,44.40
2022-08-16T12:10:02.753Z,45.04
2022-08-16T12:12:32.748Z,45.03
2022-08-16T12:15:02.157Z,44.57
2022-08-16T12:17:32.371Z,45.01
2022-08-16T12:20:00.568Z,43.95
2022-08-16T12:22:29.143Z,43.55
2022-08-16T12:24:57.214Z,43.60
2022-08-16T12:27:27.445Z,44.50
2022-08-16T12:29:59.146Z,44.29
2022-08-16T12:32:39.524Z,43.19
2022-08-16T12:35:14.628Z,43.42
2022-08-16T12:37:46.227Z,43.28
2022-08-16T12:40:24.818Z,43.67
2022-08-16T12:43:01.253Z,42.41
2022-08-16T12:45:32.055Z,43.26
2022-08-16T12:48:34.981Z,43.16
2022-08-16T12:51:04.900Z,42.11
2022-08-16T12:53:42.805Z,42.26
2022-08-16T12:56:13.851Z,41.38
2022-08-16T12:58:48.614Z,41.54
2022-08-16T13:01:18.489Z,42.19
2022-08-16T13:03:46.715Z,42.43
2022-08-16T13:06:20.198Z,41.58
2022-08-16T13:09:02.477Z,41.82
2022-08-16T13:11:37.817Z,40.37
2022-08-16T13:14:30.907Z,40.97
2022-08-16T13:16:58.770Z,41.93
2022-08-16T13:19:35.126Z,41.82
2022-08-16T13:22:18.721Z,40.64
2022-08-16T13:24:47.779Z,40.81
2022-08-16T13:27:16.295Z,40.75
2022-08-16T13:29:46.767Z,41.01
2022-08-16T13:32:40.135Z,41.75
2022-08-16T13:35:11.667Z,40.50
2022-08-16T13:37:41.796Z,40.50
2022-08-16T13:40:19.600Z,39.92
2022-08-16T13:42:49.547Z,39.66
2022-08-16T13:45:20.228Z,39.59
2022-08-16T13:47:52.868Z,39.43
2022-08-16T13:50:31.159Z,39.77
2022-08-16T13:53:09.572Z,39.22
2022-08-16T13:55:37.571Z,39.29
2022-08-16T13:58:37.433Z,40.05
2022-08-16T14:00:59.015Z,39.58
2022-08-16T14:03:27.336Z,39.73
2022-08-16T14:05:58.599Z,39.23
2022-08-16T14:08:27.466Z,39.30
2022-08-16T14:10:55.534Z,39.75
2022-08-16T14:13:23.926Z,38.89
2022-08-16T14:15:53.340Z,38.76
2022-08-16T14:18:22.841Z,39.13
2022-08-16T14:20:58.906Z,38.48
2022-08-16T14:23:27.058Z,39.29
2022-08-16T14:25:57.186Z,38.93
2022-08-16T14:28:25.883Z,38.38
2022-08-16T14:30:55.142Z,37.52
2022-08-16T14:33:24.471Z,37.89
2022-08-16T14:35:54.826Z,38.16
2022-08-16T14:38:23.789Z,38.00
2022-08-16T14:40:55.054Z,37.81
2022-08-16T14:43:24.852Z,37.84
2022-08-16T14:45:54.897Z,37.78
2022-08-16T14:48:26.205Z,37.38
2022-08-16T14:50:55.369Z,37.85
2022-08-16T14:53:24.768Z,37.60
2022-08-16T14:55:55.127Z,37.95
2022-08-16T14:58:34.688Z,37.57
2022-08-16T15:01:05.441Z,37.60
2022-08-16T15:03:37.504Z,37.70
2022-08-16T15:06:06.094Z,36.94
2022-08-16T15:08:37.441Z,37.47
2022-08-16T15:11:08.498Z,36.65
2022-08-16T15:13:36.979Z,37.47
2022-08-16T15:16:05.349Z,37.80
2022-08-16T15:18:35.136Z,37.14
2022-08-16T15:21:04.744Z,36.36
2022-08-16T15:23:34.013Z,36.88
2022-08-16T15:26:04.218Z,36.82
2022-08-16T15:28:38.005Z,36.17
2022-08-16T15:31:09.262Z,37.10
2022-08-16T15:33:43.258Z,36.02
2022-08-16T15:36:18.242Z,36.24
2022-08-16T15:39:03.089Z,36.76
2022-08-16T15:41:58.498Z,35.73
2022-08-16T15:44:45.116Z,36.39
2022-08-16T15:47:25.938Z,37.17
2022-08-16T15:49:56.465Z,37.18
2022-08-16T15:52:29.347Z,37.16
2022-08-16T15:54:58.959Z,36.61
2022-08-16T15:57:30.313Z,36.18
2022-08-16T16:00:15.004Z,36.76
2022-08-16T16:02:43.729Z,36.92
2022-08-16T16:05:13.998Z,36.39
2022-08-16T16:07:56.631Z,36.63
2022-08-16T16:10:32.279Z,37.03
2022-08-16T16:13:01.756Z,36.95
2022-08-16T16:15:34.171Z,36.43
2022-08-16T16:18:05.223Z,36.24
2022-08-16T16:20:43.768Z,36.78
2022-08-16T16:23:12.340Z,36.44
2022-08-16T16:25:44.141Z,38.65
2022-08-16T16:28:46.375Z,38.75
2022-08-16T16:31:04.670Z,39.39
2022-08-16T16:33:34.101Z,40.01
2022-08-16T16:36:06.993Z,39.79
2022-08-16T16:38:35.567Z,40.20
2022-08-16T16:41:09.298Z,40.42
2022-08-16T16:43:40.601Z,40.36
2022-08-16T16:46:32.814Z,40.70
2022-08-16T16:48:58.560Z,40.51
2022-08-16T16:51:29.100Z,41.22
2022-08-16T16:53:57.561Z,40.53
2022-08-16T16:56:31.058Z,40.85
2022-08-16T16:59:04.617Z,40.64
2022-08-16T17:01:57.755Z,41.22
2022-08-16T17:04:31.657Z,40.49
2022-08-16T17:07:02.155Z,40.76
2022-08-16T17:09:30.896Z,41.33
2022-08-16T17:11:59.737Z,40.75
2022-08-16T17:14:32.825Z,41.31
2022-08-16T17:17:06.371Z,41.06
2022-08-16T17:19:40.286Z,41.06
2022-08-16T17:22:14.344Z,41.23
2022-08-16T17:24:50.730Z,41.93
2022-08-16T17:27:32.485Z,41.62
2022-08-16T17:30:15.539Z,41.86
2022-08-16T17:32:48.225Z,41.93
2022-08-16T17:35:19.480Z,42.30
2022-08-16T17:37:51.588Z,42.53
2022-08-16T17:40:40.346Z,42.28
2022-08-16T17:43:12.578Z,42.00
2022-08-16T17:45:42.760Z,41.78
2022-08-16T17:48:11.125Z,42.44
2022-08-16T17:50:40.171Z,42.21
2022-08-16T17:53:10.426Z,42.20
2022-08-16T17:55:40.856Z,42.22
2022-08-16T17:58:22.990Z,42.31
2022-08-16T18:00:54.515Z,43.04
2022-08-16T18:04:02.945Z,42.65
2022-08-16T18:06:18.548Z,43.24
2022-08-16T18:08:49.024Z,43.11
2022-08-16T18:11:25.589Z,42.97
2022-08-16T18:13:55.349Z,43.65
2022-08-16T18:16:24.025Z,43.31
2022-08-16T18:18:51.970Z,43.64
2022-08-16T18:21:37.422Z,43.83
2022-08-16T18:24:07.237Z,43.65
2022-08-16T18:26:35.238Z,43.72
2022-08-16T18:29:03.154Z,44.16
2022-08-16T18:31:32.073Z,44.38
2022-08-16T18:34:01.388Z,44.34
2022-08-16T18:36:29.543Z,44.61
2022-08-16T18:38:57.653Z,44.76
2022-08-16T18:41:27.956Z,45.00
2022-08-16T18:44:26.604Z,44.84
2022-08-16T18:46:50.865Z,45.09
2022-08-16T18:49:19.745Z,45.82
2022-08-16T18:51:47.710Z,45.57
2022-08-16T18:54:18.445Z,46.36
2022-08-16T18:56:56.828Z,46.82
2022-08-16T18:59:28.606Z,47.33
2022-08-16T19:01:59.795Z,47.99
2022-08-16T19:04:56.681Z,47.85
2022-08-16T19:07:20.040Z,48.06
2022-08-16T19:09:48.030Z,49.35
2022-08-16T19:12:17.309Z,49.25
2022-08-16T19:15:08.070Z,49.15
2022-08-16T19:17:39.852Z,49.51
2022-08-16T19:20:10.922Z,49.48
2022-08-16T19:25:48.103Z,50.08
2022-08-16T19:28:21.903Z,50.00
2022-08-16T19:31:12.500Z,50.24
2022-08-16T19:33:41.434Z,50.57
2022-08-16T19:36:32.041Z,50.56
2022-08-16T19:39:08.958Z,50.18
2022-08-16T19:41:38.807Z,50.77
2022-08-16T19:44:08.996Z,50.67
2022-08-16T19:46:37.876Z,50.58
2022-08-16T19:49:06.638Z,50.42
2022-08-16T19:51:34.512Z,50.96
2022-08-16T19:54:02.658Z,50.91
2022-08-16T19:56:30.703Z,51.42
2022-08-16T20:01:49.323Z,51.58
2022-08-16T20:04:17.284Z,51.65
2022-08-16T20:06:45.286Z,51.65
2022-08-16T20:09:15.086Z,52.12
2022-08-16T20:11:44.471Z,51.90
2022-08-16T20:14:19.241Z,51.66
2022-08-16T20:16:55.659Z,51.38
2022-08-16T20:19:23.696Z,51.19
2022-08-16T20:21:51.736Z,51.81
2022-08-16T20:24:36.351Z,51.88
2022-08-16T20:27:06.231Z,51.10
2022-08-16T20:29:34.413Z,52.07
2022-08-16T20:32:03.929Z,52.01
2022-08-16T20:34:32.168Z,52.13
2022-08-16T20:37:00.046Z,53.01
2022-08-16T20:39:28.123Z,53.83
2022-08-16T20:41:56.096Z,54.72
2022-08-16T20:44:25.147Z,54.22
2022-08-16T20:46:53.737Z,54.50
2022-08-16T20:49:23.063Z,55.56
2022-08-16T20:51:55.867Z,55.90
2022-08-16T20:54:25.359Z,56.05
2022-08-16T20:56:53.296Z,55.70
2022-08-16T20:59:21.464Z,56.69
2022-08-16T21:01:50.329Z,57.13
2022-08-16T21:04:19.304Z,57.22
2022-08-16T21:06:54.402Z,57.74
2022-08-16T21:09:24.461Z,57.27
2022-08-16T21:11:55.072Z,57.88
2022-08-16T21:14:23.202Z,58.59
2022-08-16T21:16:51.397Z,58.54
2022-08-16T21:19:19.516Z,58.34
2022-08-16T21:21:49.175Z,58.59
2022-08-16T21:24:17.222Z,58.79
2022-08-16T21:26:53.019Z,58.55
2022-08-16T21:29:25.131Z,58.56
2022-08-16T21:32:06.133Z,58.79
2022-08-16T21:34:34.193Z,58.93
2022-08-16T21:37:03.696Z,59.47
2022-08-16T21:39:32.140Z,59.67
2022-08-16T21:42:00.168Z,59.87
2022-08-16T21:44:32.546Z,59.51
2022-08-16T21:47:06.914Z,59.35
2022-08-16T21:49:36.702Z,59.60
2022-08-16T21:52:08.425Z,59.47
2022-08-16T21:54:37.370Z,59.13
2022-08-16T21:57:10.559Z,59.17
2022-08-16T21:59:38.905Z,59.93
2022-08-16T22:02:07.607Z,60.00
2022-08-16T22:04:38.795Z,60.92
2022-08-16T22:07:08.931Z,60.76
2022-08-16T22:09:36.892Z,60.94
2022-08-16T22:12:05.596Z,61.10
2022-08-16T22:14:33.517Z,61.67
2022-08-16T22:17:01.418Z,61.58
2022-08-16T22:19:29.970Z,61.72
2022-08-16T22:21:57.878Z,62.02
2022-08-16T22:24:27.165Z,62.48
2022-08-16T22:26:55.122Z,62.57
2022-08-16T22:29:23.034Z,62.47
2022-08-16T22:31:51.093Z,62.76
2022-08-16T22:34:19.452Z,62.60
2022-08-16T22:36:47.379Z,62.88
2022-08-16T22:39:15.967Z,62.48
2022-08-16T22:41:45.914Z,62.82
2022-08-16T22:44:14.224Z,62.77
2022-08-16T22:46:42.370Z,62.76
2022-08-16T22:49:10.657Z,62.45
2022-08-16T22:51:40.259Z,62.73
2022-08-16T22:54:45.776Z,63.02
2022-08-16T22:56:58.003Z,62.90
2022-08-16T22:59:26.230Z,62.89
2022-08-16T23:01:54.601Z,62.85
2022-08-16T23:04:23.831Z,62.75
2022-08-16T23:06:51.831Z,63.00
2022-08-16T23:09:19.887Z,62.76
2022-08-16T23:11:47.988Z,62.93
2022-08-16T23:14:17.456Z,63.19
2022-08-16T23:16:47.222Z,63.26
2022-08-16T23:19:17.200Z,63.16
2022-08-16T23:21:48.868Z,63.12
2022-08-16T23:24:19.401Z,63.18
2022-08-16T23:26:49.215Z,63.27
2022-08-16T23:29:23.843Z,63.61
2022-08-16T23:31:56.715Z,63.64
2022-08-16T23:34:25.287Z,63.22
2022-08-16T23:36:53.140Z,63.30
2022-08-16T23:39:21.055Z,63.70
2022-08-16T23:41:49.018Z,64.00
2022-08-16T23:44:56.700Z,64.36
2022-08-16T23:47:07.023Z,63.73
2022-08-16T23:49:56.845Z,62.65
2022-08-16T23:52:42.235Z,62.58
2022-08-16T23:55:11.326Z,62.40
2022-08-16T23:57:39.225Z,63.30
